sensor_id;sensor_type;location;lat;lon;timestamp;P1;durP1;ratioP1;P2;durP2;ratioP2
26181;SDS011;13927;51.534;11.866;2024-03-06T00:52:13;16.90;;;8.88;;
26181;SDS011;13927;51.534;11.866;2024-03-06T01:34:59;9.75;;;6.75;;
26181;SDS011;13927;51.534;11.866;2024-03-06T01:49:31;16.77;;;8.55;;
26181;SDS011;13927;51.534;11.866;2024-03-06T01:53:19;14.27;;;7.90;;
26181;SDS011;13927;51.534;11.866;2024-03-06T02:08:43;12.38;;;6.78;;
26181;SDS011;13927;51.534;11.866;2024-03-06T02:24:32;14.10;;;7.28;;
26181;SDS011;13927;51.534;11.866;2024-03-06T02:31:41;14.93;;;7.68;;
26181;SDS011;13927;51.534;11.866;2024-03-06T03:07:15;18.08;;;8.27;;
26181;SDS011;13927;51.534;11.866;2024-03-06T03:10:20;16.52;;;7.80;;
26181;SDS011;13927;51.534;11.866;2024-03-06T03:18:08;16.15;;;7.90;;
26181;SDS011;13927;51.534;11.866;2024-03-06T03:24:42;20.65;;;8.45;;
26181;SDS011;13927;51.534;11.866;2024-03-06T03:45:55;14.57;;;7.93;;
26181;SDS011;13927;51.534;11.866;2024-03-06T04:00:13;13.52;;;7.53;;
26181;SDS011;13927;51.534;11.866;2024-03-06T04:03:45;16.10;;;7.72;;
26181;SDS011;13927;51.534;11.866;2024-03-06T04:07:23;17.05;;;8.75;;
26181;SDS011;13927;51.534;11.866;2024-03-06T04:17:05;17.10;;;8.02;;
26181;SDS011;13927;51.534;11.866;2024-03-06T04:20:46;15.80;;;7.22;;
26181;SDS011;13927;51.534;11.866;2024-03-06T04:24:21;13.32;;;7.07;;
26181;SDS011;13927;51.534;11.866;2024-03-06T04:30:52;14.88;;;8.02;;
26181;SDS011;13927;51.534;11.866;2024-03-06T04:33:22;15.25;;;8.48;;
26181;SDS011;13927;51.534;11.866;2024-03-06T04:35:53;12.00;;;7.32;;
26181;SDS011;13927;51.534;11.866;2024-03-06T04:38:21;12.95;;;7.00;;
26181;SDS011;13927;51.534;11.866;2024-03-06T04:40:56;12.73;;;7.30;;
26181;SDS011;13927;51.534;11.866;2024-03-06T04:43:23;19.65;;;8.57;;
26181;SDS011;13927;51.534;11.866;2024-03-06T04:45:56;19.60;;;8.80;;
26181;SDS011;13927;51.534;11.866;2024-03-06T04:48:25;16.27;;;8.45;;
26181;SDS011;13927;51.534;11.866;2024-03-06T04:50:54;17.60;;;7.72;;
26181;SDS011;13927;51.534;11.866;2024-03-06T04:53:20;15.05;;;7.70;;
26181;SDS011;13927;51.534;11.866;2024-03-06T04:55:49;14.48;;;8.52;;
26181;SDS011;13927;51.534;11.866;2024-03-06T04:58:17;15.85;;;8.48;;
26181;SDS011;13927;51.534;11.866;2024-03-06T05:00:44;18.42;;;8.73;;
26181;SDS011;13927;51.534;11.866;2024-03-06T05:03:10;15.88;;;8.57;;
26181;SDS011;13927;51.534;11.866;2024-03-06T05:05:36;17.58;;;8.15;;
26181;SDS011;13927;51.534;11.866;2024-03-06T05:08:03;11.93;;;7.30;;
26181;SDS011;13927;51.534;11.866;2024-03-06T05:10:56;15.77;;;7.63;;
26181;SDS011;13927;51.534;11.866;2024-03-06T05:13:28;11.93;;;7.57;;
26181;SDS011;13927;51.534;11.866;2024-03-06T05:16:03;14.75;;;7.72;;
26181;SDS011;13927;51.534;11.866;2024-03-06T05:18:53;15.95;;;7.93;;
26181;SDS011;13927;51.534;11.866;2024-03-06T05:22:05;12.90;;;7.97;;
26181;SDS011;13927;51.534;11.866;2024-03-06T05:25:11;18.98;;;8.27;;
26181;SDS011;13927;51.534;11.866;2024-03-06T05:38:13;18.27;;;8.27;;
26181;SDS011;13927;51.534;11.866;2024-03-06T05:41:12;15.65;;;8.88;;
26181;SDS011;13927;51.534;11.866;2024-03-06T05:44:42;18.85;;;9.25;;
26181;SDS011;13927;51.534;11.866;2024-03-06T05:47:22;19.08;;;9.70;;
26181;SDS011;13927;51.534;11.866;2024-03-06T05:50:05;16.23;;;8.73;;
26181;SDS011;13927;51.534;11.866;2024-03-06T05:55:12;12.82;;;7.38;;
26181;SDS011;13927;51.534;11.866;2024-03-06T05:57:44;18.70;;;9.27;;
26181;SDS011;13927;51.534;11.866;2024-03-06T06:00:29;20.73;;;9.77;;
26181;SDS011;13927;51.534;11.866;2024-03-06T06:03:07;23.52;;;10.45;;
26181;SDS011;13927;51.534;11.866;2024-03-06T06:05:39;19.98;;;10.63;;
26181;SDS011;13927;51.534;11.866;2024-03-06T06:08:05;24.40;;;11.75;;
26181;SDS011;13927;51.534;11.866;2024-03-06T06:10:42;24.88;;;11.23;;
26181;SDS011;13927;51.534;11.866;2024-03-06T06:13:23;19.10;;;11.13;;
26181;SDS011;13927;51.534;11.866;2024-03-06T06:15:52;19.40;;;10.90;;
26181;SDS011;13927;51.534;11.866;2024-03-06T06:18:21;22.90;;;11.60;;
26181;SDS011;13927;51.534;11.866;2024-03-06T06:20:52;25.77;;;12.02;;
26181;SDS011;13927;51.534;11.866;2024-03-06T06:23:24;24.30;;;11.43;;
26181;SDS011;13927;51.534;11.866;2024-03-06T06:25:50;23.38;;;10.30;;
26181;SDS011;13927;51.534;11.866;2024-03-06T06:28:22;22.67;;;11.68;;
26181;SDS011;13927;51.534;11.866;2024-03-06T06:30:56;24.95;;;11.57;;
26181;SDS011;13927;51.534;11.866;2024-03-06T06:34:17;19.40;;;9.10;;
26181;SDS011;13927;51.534;11.866;2024-03-06T06:50:47;20.33;;;10.35;;
26181;SDS011;13927;51.534;11.866;2024-03-06T06:58:25;20.13;;;9.68;;
26181;SDS011;13927;51.534;11.866;2024-03-06T07:02:19;21.10;;;9.68;;
26181;SDS011;13927;51.534;11.866;2024-03-06T08:08:39;26.98;;;15.88;;
26181;SDS011;13927;51.534;11.866;2024-03-06T08:16:05;32.70;;;16.05;;
26181;SDS011;13927;51.534;11.866;2024-03-06T08:31:17;27.40;;;15.98;;
26181;SDS011;13927;51.534;11.866;2024-03-06T08:37:52;32.78;;;16.58;;
26181;SDS011;13927;51.534;11.866;2024-03-06T08:41:06;30.55;;;15.05;;
26181;SDS011;13927;51.534;11.866;2024-03-06T08:44:32;29.85;;;15.23;;
26181;SDS011;13927;51.534;11.866;2024-03-06T08:58:56;30.98;;;14.43;;
26181;SDS011;13927;51.534;11.866;2024-03-06T09:01:47;28.90;;;16.33;;
26181;SDS011;13927;51.534;11.866;2024-03-06T09:05:10;34.30;;;14.98;;
26181;SDS011;13927;51.534;11.866;2024-03-06T09:16:19;26.38;;;14.85;;
26181;SDS011;13927;51.534;11.866;2024-03-06T13:22:08;15.55;;;10.50;;
26181;SDS011;13927;51.534;11.866;2024-03-06T13:24:34;20.92;;;12.38;;
26181;SDS011;13927;51.534;11.866;2024-03-06T13:27:02;17.67;;;11.02;;
26181;SDS011;13927;51.534;11.866;2024-03-06T13:29:28;16.33;;;10.45;;
26181;SDS011;13927;51.534;11.866;2024-03-06T13:31:54;19.15;;;10.98;;
26181;SDS011;13927;51.534;11.866;2024-03-06T13:34:20;18.52;;;11.23;;
26181;SDS011;13927;51.534;11.866;2024-03-06T13:36:46;15.93;;;10.60;;
26181;SDS011;13927;51.534;11.866;2024-03-06T13:39:12;16.67;;;10.82;;
26181;SDS011;13927;51.534;11.866;2024-03-06T13:41:39;15.02;;;9.43;;
26181;SDS011;13927;51.534;11.866;2024-03-06T13:44:05;18.40;;;10.55;;
26181;SDS011;13927;51.534;11.866;2024-03-06T13:46:33;12.60;;;8.77;;
26181;SDS011;13927;51.534;11.866;2024-03-06T13:48:59;15.95;;;9.18;;
26181;SDS011;13927;51.534;11.866;2024-03-06T13:51:25;12.63;;;8.52;;
26181;SDS011;13927;51.534;11.866;2024-03-06T13:53:51;14.95;;;9.10;;
26181;SDS011;13927;51.534;11.866;2024-03-06T13:56:17;20.95;;;10.57;;
26181;SDS011;13927;51.534;11.866;2024-03-06T13:58:43;20.33;;;11.00;;
26181;SDS011;13927;51.534;11.866;2024-03-06T14:01:09;17.20;;;10.95;;
26181;SDS011;13927;51.534;11.866;2024-03-06T14:03:35;16.20;;;9.98;;
26181;SDS011;13927;51.534;11.866;2024-03-06T14:06:03;17.83;;;11.15;;
26181;SDS011;13927;51.534;11.866;2024-03-06T14:08:34;18.50;;;10.57;;
26181;SDS011;13927;51.534;11.866;2024-03-06T14:11:01;19.17;;;12.75;;
26181;SDS011;13927;51.534;11.866;2024-03-06T14:13:30;17.40;;;11.15;;
26181;SDS011;13927;51.534;11.866;2024-03-06T14:15:56;17.58;;;10.52;;
26181;SDS011;13927;51.534;11.866;2024-03-06T14:18:25;18.38;;;11.68;;
26181;SDS011;13927;51.534;11.866;2024-03-06T14:20:51;17.45;;;10.63;;
26181;SDS011;13927;51.534;11.866;2024-03-06T14:23:17;17.55;;;10.40;;
26181;SDS011;13927;51.534;11.866;2024-03-06T14:25:50;13.68;;;9.45;;
26181;SDS011;13927;51.534;11.866;2024-03-06T14:28:16;14.93;;;10.35;;
26181;SDS011;13927;51.534;11.866;2024-03-06T14:30:43;18.02;;;10.30;;
26181;SDS011;13927;51.534;11.866;2024-03-06T14:33:09;18.55;;;10.45;;
26181;SDS011;13927;51.534;11.866;2024-03-06T14:35:35;16.23;;;9.98;;
26181;SDS011;13927;51.534;11.866;2024-03-06T14:38:01;13.43;;;9.85;;
26181;SDS011;13927;51.534;11.866;2024-03-06T14:40:27;18.17;;;11.32;;
26181;SDS011;13927;51.534;11.866;2024-03-06T14:42:53;16.40;;;9.68;;
26181;SDS011;13927;51.534;11.866;2024-03-06T14:45:18;16.17;;;9.90;;
26181;SDS011;13927;51.534;11.866;2024-03-06T14:47:45;14.20;;;9.02;;
26181;SDS011;13927;51.534;11.866;2024-03-06T14:50:11;12.52;;;9.25;;
26181;SDS011;13927;51.534;11.866;2024-03-06T14:52:37;12.93;;;7.68;;
26181;SDS011;13927;51.534;11.866;2024-03-06T14:55:03;14.18;;;8.93;;
26181;SDS011;13927;51.534;11.866;2024-03-06T14:57:32;13.27;;;8.55;;
26181;SDS011;13927;51.534;11.866;2024-03-06T14:59:58;10.80;;;7.93;;
26181;SDS011;13927;51.534;11.866;2024-03-06T15:02:27;14.80;;;9.13;;
26181;SDS011;13927;51.534;11.866;2024-03-06T15:04:53;14.25;;;8.50;;
26181;SDS011;13927;51.534;11.866;2024-03-06T15:07:19;17.58;;;9.38;;
26181;SDS011;13927;51.534;11.866;2024-03-06T15:09:46;12.90;;;8.18;;
26181;SDS011;13927;51.534;11.866;2024-03-06T15:12:12;12.60;;;7.68;;
26181;SDS011;13927;51.534;11.866;2024-03-06T15:14:38;13.23;;;8.68;;
26181;SDS011;13927;51.534;11.866;2024-03-06T15:17:04;12.70;;;8.00;;
26181;SDS011;13927;51.534;11.866;2024-03-06T15:19:29;11.35;;;7.38;;
26181;SDS011;13927;51.534;11.866;2024-03-06T15:21:55;12.10;;;7.25;;
26181;SDS011;13927;51.534;11.866;2024-03-06T15:28:07;12.60;;;6.97;;
26181;SDS011;13927;51.534;11.866;2024-03-06T15:30:34;12.00;;;6.35;;
26181;SDS011;13927;51.534;11.866;2024-03-06T15:33:02;11.48;;;6.85;;
26181;SDS011;13927;51.534;11.866;2024-03-06T15:35:29;12.55;;;6.88;;
26181;SDS011;13927;51.534;11.866;2024-03-06T15:37:57;9.90;;;6.43;;
26181;SDS011;13927;51.534;11.866;2024-03-06T15:40:23;10.88;;;6.57;;
26181;SDS011;13927;51.534;11.866;2024-03-06T15:42:50;12.25;;;7.32;;
26181;SDS011;13927;51.534;11.866;2024-03-06T15:45:17;9.13;;;7.35;;
26181;SDS011;13927;51.534;11.866;2024-03-06T15:47:47;10.90;;;7.22;;
26181;SDS011;13927;51.534;11.866;2024-03-06T15:50:14;12.70;;;7.05;;
26181;SDS011;13927;51.534;11.866;2024-03-06T15:52:40;12.30;;;6.82;;
26181;SDS011;13927;51.534;11.866;2024-03-06T15:55:06;10.20;;;6.65;;
26181;SDS011;13927;51.534;11.866;2024-03-06T15:57:36;12.95;;;6.95;;
26181;SDS011;13927;51.534;11.866;2024-03-06T16:00:03;10.45;;;7.57;;
26181;SDS011;13927;51.534;11.866;2024-03-06T16:02:31;9.38;;;6.70;;
26181;SDS011;13927;51.534;11.866;2024-03-06T16:04:58;11.82;;;6.88;;
26181;SDS011;13927;51.534;11.866;2024-03-06T16:07:25;11.00;;;6.65;;
26181;SDS011;13927;51.534;11.866;2024-03-06T16:09:53;12.68;;;6.68;;
26181;SDS011;13927;51.534;11.866;2024-03-06T16:12:19;12.35;;;7.75;;
26181;SDS011;13927;51.534;11.866;2024-03-06T16:14:44;12.18;;;6.57;;
26181;SDS011;13927;51.534;11.866;2024-03-06T16:17:10;11.05;;;6.43;;
26181;SDS011;13927;51.534;11.866;2024-03-06T16:19:36;9.73;;;6.05;;
26181;SDS011;13927;51.534;11.866;2024-03-06T16:22:02;9.18;;;5.90;;
26181;SDS011;13927;51.534;11.866;2024-03-06T16:24:28;9.38;;;6.45;;
26181;SDS011;13927;51.534;11.866;2024-03-06T16:26:55;10.85;;;6.30;;
26181;SDS011;13927;51.534;11.866;2024-03-06T16:29:21;10.45;;;6.20;;
26181;SDS011;13927;51.534;11.866;2024-03-06T16:31:47;11.27;;;6.40;;
26181;SDS011;13927;51.534;11.866;2024-03-06T16:34:16;10.23;;;6.03;;
26181;SDS011;13927;51.534;11.866;2024-03-06T16:36:46;14.25;;;6.55;;
26181;SDS011;13927;51.534;11.866;2024-03-06T16:39:12;9.68;;;6.25;;
26181;SDS011;13927;51.534;11.866;2024-03-06T16:41:40;15.32;;;8.15;;
26181;SDS011;13927;51.534;11.866;2024-03-06T16:44:07;23.65;;;16.83;;
26181;SDS011;13927;51.534;11.866;2024-03-06T16:46:32;15.15;;;11.25;;
26181;SDS011;13927;51.534;11.866;2024-03-06T16:48:59;28.63;;;19.40;;
26181;SDS011;13927;51.534;11.866;2024-03-06T16:51:25;28.77;;;19.17;;
26181;SDS011;13927;51.534;11.866;2024-03-06T16:53:53;12.98;;;9.05;;
26181;SDS011;13927;51.534;11.866;2024-03-06T16:56:19;18.05;;;13.32;;
26181;SDS011;13927;51.534;11.866;2024-03-06T16:58:45;9.48;;;7.25;;
26181;SDS011;13927;51.534;11.866;2024-03-06T17:01:11;10.82;;;6.72;;
26181;SDS011;13927;51.534;11.866;2024-03-06T17:03:37;10.00;;;5.70;;
26181;SDS011;13927;51.534;11.866;2024-03-06T17:06:02;9.65;;;6.13;;
26181;SDS011;13927;51.534;11.866;2024-03-06T17:08:29;7.22;;;4.50;;
26181;SDS011;13927;51.534;11.866;2024-03-06T17:10:54;10.38;;;5.63;;
26181;SDS011;13927;51.534;11.866;2024-03-06T17:13:20;9.55;;;5.85;;
26181;SDS011;13927;51.534;11.866;2024-03-06T17:15:46;9.38;;;5.28;;
26181;SDS011;13927;51.534;11.866;2024-03-06T17:18:12;8.65;;;5.78;;
26181;SDS011;13927;51.534;11.866;2024-03-06T17:20:37;9.05;;;5.38;;
26181;SDS011;13927;51.534;11.866;2024-03-06T17:23:03;8.18;;;5.25;;
26181;SDS011;13927;51.534;11.866;2024-03-06T17:25:30;8.65;;;5.07;;
26181;SDS011;13927;51.534;11.866;2024-03-06T17:27:56;9.90;;;5.10;;
26181;SDS011;13927;51.534;11.866;2024-03-06T17:30:22;10.00;;;4.90;;
26181;SDS011;13927;51.534;11.866;2024-03-06T17:32:48;10.63;;;4.72;;
26181;SDS011;13927;51.534;11.866;2024-03-06T17:35:16;7.95;;;5.00;;
26181;SDS011;13927;51.534;11.866;2024-03-06T17:37:42;7.28;;;4.82;;
26181;SDS011;13927;51.534;11.866;2024-03-06T17:40:08;9.43;;;5.28;;
26181;SDS011;13927;51.534;11.866;2024-03-06T17:42:36;9.48;;;5.20;;
26181;SDS011;13927;51.534;11.866;2024-03-06T17:45:03;9.77;;;5.72;;
26181;SDS011;13927;51.534;11.866;2024-03-06T17:47:32;11.25;;;5.07;;
26181;SDS011;13927;51.534;11.866;2024-03-06T17:49:59;10.00;;;5.28;;
26181;SDS011;13927;51.534;11.866;2024-03-06T17:52:25;8.85;;;4.95;;
26181;SDS011;13927;51.534;11.866;2024-03-06T17:54:51;9.15;;;5.32;;
26181;SDS011;13927;51.534;11.866;2024-03-06T17:57:17;8.90;;;5.20;;
26181;SDS011;13927;51.534;11.866;2024-03-06T17:59:43;9.38;;;5.05;;
26181;SDS011;13927;51.534;11.866;2024-03-06T18:02:08;9.20;;;5.72;;
26181;SDS011;13927;51.534;11.866;2024-03-06T18:04:34;9.88;;;5.57;;
26181;SDS011;13927;51.534;11.866;2024-03-06T18:07:00;8.50;;;5.10;;
26181;SDS011;13927;51.534;11.866;2024-03-06T18:09:26;8.30;;;4.80;;
26181;SDS011;13927;51.534;11.866;2024-03-06T18:11:51;8.48;;;5.47;;
26181;SDS011;13927;51.534;11.866;2024-03-06T18:14:17;12.48;;;6.03;;
26181;SDS011;13927;51.534;11.866;2024-03-06T18:16:44;8.63;;;5.63;;
26181;SDS011;13927;51.534;11.866;2024-03-06T18:19:10;9.98;;;5.07;;
26181;SDS011;13927;51.534;11.866;2024-03-06T18:21:45;8.25;;;5.05;;
26181;SDS011;13927;51.534;11.866;2024-03-06T18:24:11;11.77;;;5.18;;
26181;SDS011;13927;51.534;11.866;2024-03-06T18:26:45;8.68;;;5.10;;
26181;SDS011;13927;51.534;11.866;2024-03-06T18:29:11;9.93;;;5.45;;
26181;SDS011;13927;51.534;11.866;2024-03-06T18:31:37;7.85;;;5.32;;
26181;SDS011;13927;51.534;11.866;2024-03-06T18:34:08;8.88;;;4.70;;
26181;SDS011;13927;51.534;11.866;2024-03-06T18:36:34;10.38;;;6.05;;
26181;SDS011;13927;51.534;11.866;2024-03-06T18:39:03;12.77;;;6.88;;
26181;SDS011;13927;51.534;11.866;2024-03-06T18:41:28;15.43;;;8.27;;
26181;SDS011;13927;51.534;11.866;2024-03-06T18:43:54;11.68;;;8.27;;
26181;SDS011;13927;51.534;11.866;2024-03-06T18:46:20;13.63;;;9.02;;
26181;SDS011;13927;51.534;11.866;2024-03-06T18:48:45;13.43;;;7.57;;
26181;SDS011;13927;51.534;11.866;2024-03-06T18:51:11;14.00;;;8.60;;
26181;SDS011;13927;51.534;11.866;2024-03-06T18:53:40;15.65;;;9.30;;
26181;SDS011;13927;51.534;11.866;2024-03-06T18:56:06;15.45;;;9.70;;
26181;SDS011;13927;51.534;11.866;2024-03-06T18:58:31;16.35;;;8.55;;
26181;SDS011;13927;51.534;11.866;2024-03-06T19:00:58;16.80;;;9.20;;
26181;SDS011;13927;51.534;11.866;2024-03-06T19:03:24;13.65;;;8.93;;
26181;SDS011;13927;51.534;11.866;2024-03-06T19:05:49;15.10;;;9.20;;
26181;SDS011;13927;51.534;11.866;2024-03-06T19:08:15;15.30;;;9.48;;
26181;SDS011;13927;51.534;11.866;2024-03-06T19:10:41;22.08;;;13.10;;
26181;SDS011;13927;51.534;11.866;2024-03-06T19:13:06;21.13;;;12.20;;
26181;SDS011;13927;51.534;11.866;2024-03-06T19:15:32;17.40;;;11.00;;
26181;SDS011;13927;51.534;11.866;2024-03-06T19:17:58;14.45;;;8.95;;
26181;SDS011;13927;51.534;11.866;2024-03-06T19:20:23;14.90;;;9.32;;
26181;SDS011;13927;51.534;11.866;2024-03-06T19:22:49;14.23;;;8.55;;
26181;SDS011;13927;51.534;11.866;2024-03-06T19:25:15;14.90;;;9.02;;
26181;SDS011;13927;51.534;11.866;2024-03-06T19:27:41;14.77;;;9.27;;
26181;SDS011;13927;51.534;11.866;2024-03-06T19:30:07;12.93;;;8.45;;
26181;SDS011;13927;51.534;11.866;2024-03-06T19:32:36;15.05;;;9.02;;
26181;SDS011;13927;51.534;11.866;2024-03-06T19:35:02;17.92;;;9.02;;
26181;SDS011;13927;51.534;11.866;2024-03-06T19:37:30;16.65;;;10.05;;
26181;SDS011;13927;51.534;11.866;2024-03-06T19:39:59;17.50;;;9.70;;
26181;SDS011;13927;51.534;11.866;2024-03-06T19:42:31;15.73;;;9.02;;
26181;SDS011;13927;51.534;11.866;2024-03-06T19:44:57;15.02;;;8.70;;
26181;SDS011;13927;51.534;11.866;2024-03-06T19:47:23;16.02;;;9.68;;
26181;SDS011;13927;51.534;11.866;2024-03-06T19:49:49;15.77;;;9.82;;
26181;SDS011;13927;51.534;11.866;2024-03-06T19:52:14;22.40;;;11.85;;
26181;SDS011;13927;51.534;11.866;2024-03-06T19:54:41;18.92;;;11.63;;
26181;SDS011;13927;51.534;11.866;2024-03-06T19:57:07;19.58;;;10.23;;
26181;SDS011;13927;51.534;11.866;2024-03-06T19:59:33;16.25;;;9.80;;
26181;SDS011;13927;51.534;11.866;2024-03-06T20:01:59;16.20;;;9.75;;
26181;SDS011;13927;51.534;11.866;2024-03-06T20:04:24;18.55;;;9.70;;
26181;SDS011;13927;51.534;11.866;2024-03-06T20:06:50;21.55;;;10.27;;
26181;SDS011;13927;51.534;11.866;2024-03-06T20:09:16;15.02;;;9.45;;
26181;SDS011;13927;51.534;11.866;2024-03-06T20:11:41;14.98;;;9.55;;
26181;SDS011;13927;51.534;11.866;2024-03-06T20:14:07;17.27;;;9.48;;
26181;SDS011;13927;51.534;11.866;2024-03-06T20:16:33;14.65;;;9.25;;
26181;SDS011;13927;51.534;11.866;2024-03-06T20:18:58;17.02;;;10.23;;
26181;SDS011;13927;51.534;11.866;2024-03-06T20:21:24;17.73;;;9.85;;
26181;SDS011;13927;51.534;11.866;2024-03-06T20:23:50;16.63;;;10.32;;
26181;SDS011;13927;51.534;11.866;2024-03-06T20:26:16;18.13;;;9.68;;
26181;SDS011;13927;51.534;11.866;2024-03-06T20:28:41;17.88;;;10.43;;
26181;SDS011;13927;51.534;11.866;2024-03-06T20:31:09;15.73;;;10.07;;
26181;SDS011;13927;51.534;11.866;2024-03-06T20:33:35;14.90;;;8.55;;
26181;SDS011;13927;51.534;11.866;2024-03-06T20:36:01;15.45;;;9.88;;
26181;SDS011;13927;51.534;11.866;2024-03-06T20:38:29;18.33;;;9.35;;
26181;SDS011;13927;51.534;11.866;2024-03-06T20:40:56;18.30;;;9.82;;
26181;SDS011;13927;51.534;11.866;2024-03-06T20:43:28;16.52;;;9.57;;
26181;SDS011;13927;51.534;11.866;2024-03-06T20:45:55;14.50;;;9.27;;
26181;SDS011;13927;51.534;11.866;2024-03-06T20:48:21;17.75;;;10.02;;
26181;SDS011;13927;51.534;11.866;2024-03-06T20:50:50;18.80;;;10.77;;
26181;SDS011;13927;51.534;11.866;2024-03-06T20:53:15;22.38;;;11.10;;
26181;SDS011;13927;51.534;11.866;2024-03-06T20:55:41;16.50;;;10.20;;
26181;SDS011;13927;51.534;11.866;2024-03-06T20:58:11;16.85;;;10.07;;
26181;SDS011;13927;51.534;11.866;2024-03-06T21:00:38;19.50;;;10.18;;
26181;SDS011;13927;51.534;11.866;2024-03-06T21:03:05;19.67;;;10.50;;
26181;SDS011;13927;51.534;11.866;2024-03-06T21:05:32;16.15;;;9.85;;
26181;SDS011;13927;51.534;11.866;2024-03-06T21:07:58;17.45;;;10.10;;
26181;SDS011;13927;51.534;11.866;2024-03-06T21:10:29;18.67;;;9.43;;
26181;SDS011;13927;51.534;11.866;2024-03-06T21:12:55;17.25;;;10.63;;
26181;SDS011;13927;51.534;11.866;2024-03-06T21:15:21;15.98;;;9.43;;
26181;SDS011;13927;51.534;11.866;2024-03-06T21:17:49;17.80;;;9.88;;
26181;SDS011;13927;51.534;11.866;2024-03-06T21:20:15;16.42;;;9.27;;
26181;SDS011;13927;51.534;11.866;2024-03-06T21:22:43;15.13;;;9.65;;
26181;SDS011;13927;51.534;11.866;2024-03-06T21:25:11;15.98;;;9.93;;
26181;SDS011;13927;51.534;11.866;2024-03-06T21:27:37;16.92;;;9.73;;
26181;SDS011;13927;51.534;11.866;2024-03-06T21:30:04;20.80;;;9.90;;
26181;SDS011;13927;51.534;11.866;2024-03-06T21:32:37;19.58;;;10.07;;
26181;SDS011;13927;51.534;11.866;2024-03-06T21:35:03;17.73;;;9.80;;
26181;SDS011;13927;51.534;11.866;2024-03-06T21:37:30;19.45;;;10.30;;
26181;SDS011;13927;51.534;11.866;2024-03-06T21:39:57;16.42;;;8.70;;
26181;SDS011;13927;51.534;11.866;2024-03-06T21:42:24;16.48;;;10.25;;
26181;SDS011;13927;51.534;11.866;2024-03-06T21:44:49;17.67;;;9.05;;
26181;SDS011;13927;51.534;11.866;2024-03-06T21:47:15;18.55;;;10.80;;
26181;SDS011;13927;51.534;11.866;2024-03-06T21:49:42;19.25;;;10.27;;
26181;SDS011;13927;51.534;11.866;2024-03-06T21:52:08;23.13;;;10.73;;
26181;SDS011;13927;51.534;11.866;2024-03-06T21:54:39;24.10;;;11.77;;
26181;SDS011;13927;51.534;11.866;2024-03-06T21:57:09;18.73;;;10.23;;
26181;SDS011;13927;51.534;11.866;2024-03-06T21:59:40;16.33;;;9.85;;
26181;SDS011;13927;51.534;11.866;2024-03-06T22:02:06;20.17;;;11.02;;
26181;SDS011;13927;51.534;11.866;2024-03-06T22:04:35;21.42;;;10.85;;
26181;SDS011;13927;51.534;11.866;2024-03-06T22:07:01;23.40;;;10.77;;
26181;SDS011;13927;51.534;11.866;2024-03-06T22:09:30;20.77;;;10.93;;
26181;SDS011;13927;51.534;11.866;2024-03-06T22:11:57;18.40;;;10.68;;
26181;SDS011;13927;51.534;11.866;2024-03-06T22:14:25;19.17;;;10.00;;
26181;SDS011;13927;51.534;11.866;2024-03-06T22:16:52;20.83;;;10.43;;
26181;SDS011;13927;51.534;11.866;2024-03-06T22:19:23;19.98;;;10.80;;
26181;SDS011;13927;51.534;11.866;2024-03-06T22:21:49;17.80;;;9.95;;
26181;SDS011;13927;51.534;11.866;2024-03-06T22:24:15;20.58;;;11.20;;
26181;SDS011;13927;51.534;11.866;2024-03-06T22:26:41;20.67;;;11.75;;
26181;SDS011;13927;51.534;11.866;2024-03-06T22:29:11;19.20;;;10.45;;
26181;SDS011;13927;51.534;11.866;2024-03-06T22:31:39;19.63;;;10.88;;
26181;SDS011;13927;51.534;11.866;2024-03-06T22:34:09;23.00;;;12.07;;
26181;SDS011;13927;51.534;11.866;2024-03-06T22:36:35;22.60;;;11.80;;
26181;SDS011;13927;51.534;11.866;2024-03-06T22:39:02;21.83;;;11.63;;
26181;SDS011;13927;51.534;11.866;2024-03-06T22:41:28;24.95;;;12.52;;
26181;SDS011;13927;51.534;11.866;2024-03-06T22:43:54;25.70;;;10.93;;
26181;SDS011;13927;51.534;11.866;2024-03-06T22:46:23;23.30;;;12.68;;
26181;SDS011;13927;51.534;11.866;2024-03-06T22:48:49;23.05;;;12.18;;
26181;SDS011;13927;51.534;11.866;2024-03-06T22:51:16;27.42;;;11.98;;
26181;SDS011;13927;51.534;11.866;2024-03-06T22:53:45;27.10;;;11.18;;
26181;SDS011;13927;51.534;11.866;2024-03-06T22:56:12;21.38;;;11.50;;
26181;SDS011;13927;51.534;11.866;2024-03-06T22:58:38;24.33;;;11.23;;
26181;SDS011;13927;51.534;11.866;2024-03-06T23:01:04;22.42;;;11.93;;
26181;SDS011;13927;51.534;11.866;2024-03-06T23:03:33;19.92;;;11.18;;
26181;SDS011;13927;51.534;11.866;2024-03-06T23:06:00;24.02;;;11.90;;
26181;SDS011;13927;51.534;11.866;2024-03-06T23:08:25;24.33;;;12.52;;
26181;SDS011;13927;51.534;11.866;2024-03-06T23:10:51;25.92;;;12.55;;
26181;SDS011;13927;51.534;11.866;2024-03-06T23:13:17;25.63;;;10.98;;
26181;SDS011;13927;51.534;11.866;2024-03-06T23:15:43;25.67;;;12.77;;
26181;SDS011;13927;51.534;11.866;2024-03-06T23:18:10;23.83;;;12.60;;
26181;SDS011;13927;51.534;11.866;2024-03-06T23:20:36;23.02;;;11.57;;
26181;SDS011;13927;51.534;11.866;2024-03-06T23:23:02;22.48;;;12.18;;
26181;SDS011;13927;51.534;11.866;2024-03-06T23:25:29;23.42;;;10.77;;
26181;SDS011;13927;51.534;11.866;2024-03-06T23:27:55;26.77;;;13.65;;
26181;SDS011;13927;51.534;11.866;2024-03-06T23:30:24;22.52;;;11.85;;
26181;SDS011;13927;51.534;11.866;2024-03-06T23:32:50;24.42;;;12.45;;
26181;SDS011;13927;51.534;11.866;2024-03-06T23:35:19;25.13;;;11.93;;
26181;SDS011;13927;51.534;11.866;2024-03-06T23:37:45;24.15;;;10.85;;
26181;SDS011;13927;51.534;11.866;2024-03-06T23:40:14;22.98;;;12.27;;
26181;SDS011;13927;51.534;11.866;2024-03-06T23:42:44;23.42;;;11.43;;
26181;SDS011;13927;51.534;11.866;2024-03-06T23:45:12;23.00;;;12.30;;
26181;SDS011;13927;51.534;11.866;2024-03-06T23:47:41;19.58;;;10.80;;
26181;SDS011;13927;51.534;11.866;2024-03-06T23:50:09;22.65;;;11.45;;
26181;SDS011;13927;51.534;11.866;2024-03-06T23:52:36;25.65;;;13.38;;
26181;SDS011;13927;51.534;11.866;2024-03-06T23:55:02;21.55;;;12.07;;
26181;SDS011;13927;51.534;11.866;2024-03-06T23:57:32;23.67;;;12.32;;
